VJC168 VVTS-VVNB
Flight info
| Callsign | VJC168 |
|---|---|
| Flight time | N/A |
| Altitude | 35000 |
| Route | PATMA5P/25L PATMA Q2 BIVIM BISON3F |
| Aircraft | A21N/M-SDE3FGHIRWY/LB1 |
Departure
| Time | N/A |
|---|---|
| Airport | Tan Son Nhat International Airport (VVTS) |
Arrival
| Time | 2026-05-08 16:53 |
|---|---|
| Airport | Noi Bai International Airport (VVNB) |
| Time | Latitude | Longitude | Altitude | Speed | Heading |
|---|---|---|---|---|---|
| 2026-05-08 15:31 | 12.79762 | 107.81932 | 34926 ft | 441 kts | 2° |
| 2026-05-08 15:31 | 12.82857 | 107.81993 | 34927 ft | 441 kts | 2° |
| 2026-05-08 15:31 | 12.89003 | 107.82114 | 34923 ft | 441 kts | 2° |
| 2026-05-08 15:32 | 12.95143 | 107.82235 | 34921 ft | 441 kts | 2° |
| 2026-05-08 15:32 | 13.01323 | 107.82358 | 34919 ft | 441 kts | 2° |
| 2026-05-08 15:33 | 13.07467 | 107.82478 | 34918 ft | 441 kts | 2° |
| 2026-05-08 15:33 | 13.13594 | 107.82600 | 34913 ft | 441 kts | 2° |
| 2026-05-08 15:34 | 13.19743 | 107.82722 | 34916 ft | 441 kts | 2° |
| 2026-05-08 15:34 | 13.25903 | 107.82845 | 34913 ft | 441 kts | 2° |
| 2026-05-08 15:35 | 13.32058 | 107.82967 | 34920 ft | 441 kts | 2° |
| 2026-05-08 15:35 | 13.38205 | 107.83092 | 34918 ft | 441 kts | 2° |
| 2026-05-08 15:36 | 13.43321 | 107.83199 | 34929 ft | 441 kts | 2° |
| 2026-05-08 15:36 | 13.50474 | 107.83347 | 34933 ft | 441 kts | 2° |
| 2026-05-08 15:37 | 13.56654 | 107.83476 | 34943 ft | 441 kts | 2° |
| 2026-05-08 15:37 | 13.62765 | 107.83603 | 34951 ft | 442 kts | 2° |
| 2026-05-08 15:38 | 13.68918 | 107.83732 | 34959 ft | 441 kts | 2° |
| 2026-05-08 15:38 | 13.75071 | 107.83861 | 34971 ft | 441 kts | 2° |
| 2026-05-08 15:39 | 13.81246 | 107.83991 | 34969 ft | 441 kts | 2° |
| 2026-05-08 15:39 | 13.87390 | 107.84118 | 34974 ft | 441 kts | 3° |
| 2026-05-08 15:40 | 13.93572 | 107.84248 | 34973 ft | 442 kts | 3° |
| 2026-05-08 15:40 | 13.99732 | 107.84377 | 34980 ft | 442 kts | 3° |
| 2026-05-08 15:41 | 14.05903 | 107.84370 | 34990 ft | 442 kts | 1° |
| 2026-05-08 15:41 | 14.12094 | 107.84365 | 35006 ft | 442 kts | 1° |
| 2026-05-08 15:42 | 14.18229 | 107.84367 | 35013 ft | 442 kts | 1° |
| 2026-05-08 15:42 | 14.24418 | 107.84368 | 35037 ft | 441 kts | 1° |
| 2026-05-08 15:43 | 14.30559 | 107.84370 | 35047 ft | 442 kts | 1° |
| 2026-05-08 15:43 | 14.36718 | 107.84370 | 35050 ft | 442 kts | 1° |
| 2026-05-08 15:44 | 14.42916 | 107.84373 | 35055 ft | 441 kts | 1° |
| 2026-05-08 15:44 | 14.49042 | 107.84373 | 35046 ft | 441 kts | 1° |
| 2026-05-08 15:45 | 14.55181 | 107.84376 | 35046 ft | 442 kts | 1° |
| 2026-05-08 15:45 | 14.61350 | 107.84377 | 35060 ft | 441 kts | 1° |
| 2026-05-08 15:46 | 14.67545 | 107.84378 | 35070 ft | 442 kts | 1° |
| 2026-05-08 15:46 | 14.73669 | 107.84380 | 35079 ft | 441 kts | 1° |
| 2026-05-08 15:47 | 14.79870 | 107.84382 | 35097 ft | 441 kts | 1° |
| 2026-05-08 15:47 | 14.85988 | 107.84384 | 35112 ft | 441 kts | 1° |
| 2026-05-08 15:48 | 14.95215 | 107.84647 | 35144 ft | 441 kts | 3° |
| 2026-05-08 15:49 | 15.01391 | 107.84885 | 35175 ft | 440 kts | 3° |
| 2026-05-08 15:49 | 15.07503 | 107.85117 | 35183 ft | 441 kts | 3° |
| 2026-05-08 15:50 | 15.13659 | 107.85353 | 35153 ft | 441 kts | 3° |
| 2026-05-08 15:50 | 15.19782 | 107.85586 | 35131 ft | 441 kts | 3° |
| 2026-05-08 15:51 | 15.25959 | 107.85822 | 35104 ft | 441 kts | 3° |
| 2026-05-08 15:51 | 15.32118 | 107.86056 | 35089 ft | 441 kts | 3° |
| 2026-05-08 15:52 | 15.38230 | 107.86288 | 35067 ft | 441 kts | 3° |
| 2026-05-08 15:52 | 15.44406 | 107.86524 | 35047 ft | 442 kts | 3° |
| 2026-05-08 15:53 | 15.50553 | 107.86758 | 35028 ft | 442 kts | 3° |
| 2026-05-08 15:53 | 15.56714 | 107.86993 | 35020 ft | 442 kts | 3° |
| 2026-05-08 15:54 | 15.62865 | 107.87229 | 35012 ft | 442 kts | 2° |
| 2026-05-08 15:54 | 15.69054 | 107.87466 | 35001 ft | 442 kts | 2° |
| 2026-05-08 15:55 | 15.75182 | 107.87701 | 34999 ft | 442 kts | 2° |
| 2026-05-08 15:55 | 15.84433 | 107.88056 | 35014 ft | 442 kts | 2° |
| 2026-05-08 15:56 | 15.90613 | 107.88052 | 35023 ft | 443 kts | 356° |
| 2026-05-08 15:56 | 15.96732 | 107.87162 | 35034 ft | 444 kts | 348° |
| 2026-05-08 15:57 | 16.02660 | 107.85358 | 35041 ft | 445 kts | 340° |
| 2026-05-08 15:57 | 16.08354 | 107.82748 | 35032 ft | 445 kts | 336° |
| 2026-05-08 15:58 | 16.13942 | 107.79984 | 35019 ft | 445 kts | 335° |
| 2026-05-08 15:58 | 16.19542 | 107.77216 | 35012 ft | 445 kts | 335° |
| 2026-05-08 15:59 | 16.25159 | 107.74447 | 35012 ft | 445 kts | 335° |
| 2026-05-08 15:59 | 16.30729 | 107.71702 | 34998 ft | 445 kts | 335° |
| 2026-05-08 16:00 | 16.36356 | 107.68927 | 34979 ft | 445 kts | 335° |
| 2026-05-08 16:00 | 16.41967 | 107.66158 | 34964 ft | 445 kts | 335° |
| 2026-05-08 16:01 | 16.47524 | 107.63414 | 34951 ft | 445 kts | 335° |
| 2026-05-08 16:01 | 16.53170 | 107.60636 | 34942 ft | 445 kts | 335° |
| 2026-05-08 16:02 | 16.58789 | 107.57881 | 34938 ft | 445 kts | 335° |
| 2026-05-08 16:02 | 16.64410 | 107.55121 | 34934 ft | 445 kts | 335° |
| 2026-05-08 16:03 | 16.69997 | 107.52374 | 34932 ft | 445 kts | 335° |
| 2026-05-08 16:03 | 16.75643 | 107.49596 | 34928 ft | 445 kts | 335° |
| 2026-05-08 16:04 | 16.81238 | 107.46838 | 34926 ft | 445 kts | 335° |
| 2026-05-08 16:04 | 16.86830 | 107.44082 | 34923 ft | 445 kts | 335° |
| 2026-05-08 16:05 | 16.92457 | 107.41311 | 34919 ft | 446 kts | 335° |
| 2026-05-08 16:05 | 16.98070 | 107.38549 | 34915 ft | 446 kts | 335° |
| 2026-05-08 16:06 | 17.03687 | 107.35776 | 34912 ft | 446 kts | 335° |
| 2026-05-08 16:06 | 17.09269 | 107.32970 | 34912 ft | 446 kts | 334° |
| 2026-05-08 16:07 | 17.14889 | 107.30138 | 34919 ft | 446 kts | 334° |
| 2026-05-08 16:07 | 17.20464 | 107.27326 | 34924 ft | 445 kts | 334° |
| 2026-05-08 16:08 | 17.26084 | 107.24492 | 34925 ft | 446 kts | 334° |
| 2026-05-08 16:08 | 17.31662 | 107.21677 | 34927 ft | 446 kts | 334° |
| 2026-05-08 16:09 | 17.36336 | 107.19318 | 34928 ft | 446 kts | 334° |
| 2026-05-08 16:09 | 17.42844 | 107.16032 | 34930 ft | 445 kts | 334° |
| 2026-05-08 16:10 | 17.48447 | 107.13200 | 34930 ft | 445 kts | 334° |
| 2026-05-08 16:10 | 17.54028 | 107.10376 | 34930 ft | 445 kts | 334° |
| 2026-05-08 16:11 | 17.59598 | 107.07555 | 34931 ft | 445 kts | 334° |
| 2026-05-08 16:11 | 17.65173 | 107.04730 | 34932 ft | 445 kts | 334° |
| 2026-05-08 16:12 | 17.70763 | 107.01897 | 34930 ft | 445 kts | 334° |
| 2026-05-08 16:12 | 17.76357 | 106.99060 | 34931 ft | 446 kts | 334° |
| 2026-05-08 16:13 | 17.81931 | 106.96228 | 34930 ft | 445 kts | 334° |
| 2026-05-08 16:13 | 17.87513 | 106.93391 | 34932 ft | 445 kts | 334° |
| 2026-05-08 16:14 | 17.93110 | 106.90566 | 34931 ft | 445 kts | 334° |
| 2026-05-08 16:14 | 17.98662 | 106.87774 | 34931 ft | 444 kts | 334° |
| 2026-05-08 16:15 | 18.04250 | 106.84958 | 34933 ft | 445 kts | 334° |
| 2026-05-08 16:15 | 18.09831 | 106.82142 | 34933 ft | 445 kts | 334° |
| 2026-05-08 16:16 | 18.15438 | 106.79311 | 34932 ft | 445 kts | 334° |
| 2026-05-08 16:16 | 18.21018 | 106.76492 | 34934 ft | 446 kts | 334° |
| 2026-05-08 16:17 | 18.25674 | 106.74136 | 34932 ft | 446 kts | 334° |
| 2026-05-08 16:17 | 18.32226 | 106.70821 | 34933 ft | 445 kts | 334° |
| 2026-05-08 16:18 | 18.37799 | 106.67998 | 34932 ft | 445 kts | 334° |
| 2026-05-08 16:18 | 18.43419 | 106.65198 | 34933 ft | 444 kts | 334° |
| 2026-05-08 16:19 | 18.49020 | 106.62412 | 34933 ft | 445 kts | 334° |
| 2026-05-08 16:19 | 18.54628 | 106.59618 | 34932 ft | 445 kts | 334° |
| 2026-05-08 16:20 | 18.60219 | 106.56827 | 34932 ft | 445 kts | 334° |
| 2026-05-08 16:20 | 18.65797 | 106.54040 | 34933 ft | 445 kts | 334° |
| 2026-05-08 16:21 | 18.71435 | 106.51220 | 34934 ft | 444 kts | 334° |
| 2026-05-08 16:21 | 18.76994 | 106.48438 | 34932 ft | 443 kts | 334° |
| 2026-05-08 16:22 | 18.82572 | 106.45643 | 34929 ft | 444 kts | 334° |
| 2026-05-08 16:22 | 18.88160 | 106.42841 | 34932 ft | 444 kts | 334° |
| 2026-05-08 16:23 | 18.93741 | 106.40042 | 34935 ft | 445 kts | 333° |
| 2026-05-08 16:23 | 18.99350 | 106.37225 | 34938 ft | 445 kts | 333° |
| 2026-05-08 16:24 | 19.04956 | 106.34407 | 34942 ft | 446 kts | 333° |
| 2026-05-08 16:24 | 19.10552 | 106.31594 | 34904 ft | 446 kts | 333° |
| 2026-05-08 16:25 | 19.13381 | 106.30170 | 34612 ft | 445 kts | 333° |
| 2026-05-08 16:25 | 19.16173 | 106.28764 | 34327 ft | 443 kts | 333° |
| 2026-05-08 16:25 | 19.18933 | 106.27374 | 34044 ft | 440 kts | 333° |
| 2026-05-08 16:25 | 19.21716 | 106.25973 | 33758 ft | 439 kts | 333° |
| 2026-05-08 16:26 | 19.24473 | 106.24584 | 33476 ft | 439 kts | 333° |
| 2026-05-08 16:26 | 19.27218 | 106.23201 | 33196 ft | 440 kts | 333° |
| 2026-05-08 16:26 | 19.30008 | 106.21794 | 32912 ft | 441 kts | 333° |
| 2026-05-08 16:26 | 19.32767 | 106.20402 | 32632 ft | 442 kts | 333° |
| 2026-05-08 16:27 | 19.35567 | 106.18988 | 32367 ft | 442 kts | 333° |
| 2026-05-08 16:27 | 19.38323 | 106.17596 | 32117 ft | 441 kts | 333° |
| 2026-05-08 16:27 | 19.41110 | 106.16187 | 31865 ft | 440 kts | 333° |
| 2026-05-08 16:27 | 19.43848 | 106.14805 | 31616 ft | 438 kts | 333° |
| 2026-05-08 16:28 | 19.46613 | 106.13406 | 31365 ft | 437 kts | 333° |
| 2026-05-08 16:28 | 19.49331 | 106.12032 | 31115 ft | 435 kts | 333° |
| 2026-05-08 16:28 | 19.52076 | 106.10645 | 30864 ft | 433 kts | 333° |
| 2026-05-08 16:28 | 19.54770 | 106.09281 | 30610 ft | 431 kts | 333° |
| 2026-05-08 16:29 | 19.57493 | 106.07904 | 30340 ft | 429 kts | 333° |
| 2026-05-08 16:29 | 19.60165 | 106.06552 | 30060 ft | 427 kts | 333° |
| 2026-05-08 16:29 | 19.62863 | 106.05184 | 29680 ft | 425 kts | 334° |
| 2026-05-08 16:29 | 19.65515 | 106.03840 | 29271 ft | 423 kts | 334° |
| 2026-05-08 16:30 | 19.68175 | 106.02492 | 28840 ft | 419 kts | 333° |
| 2026-05-08 16:30 | 19.70779 | 106.01171 | 28398 ft | 416 kts | 334° |
| 2026-05-08 16:30 | 19.73399 | 105.99842 | 27944 ft | 413 kts | 334° |
| 2026-05-08 16:30 | 19.75961 | 105.98541 | 27499 ft | 410 kts | 334° |
| 2026-05-08 16:31 | 19.78540 | 105.97233 | 27033 ft | 407 kts | 334° |
| 2026-05-08 16:31 | 19.81067 | 105.95949 | 26569 ft | 404 kts | 334° |
| 2026-05-08 16:31 | 19.83615 | 105.94656 | 26106 ft | 402 kts | 334° |
| 2026-05-08 16:31 | 19.86112 | 105.93387 | 25651 ft | 399 kts | 334° |
| 2026-05-08 16:32 | 19.88629 | 105.92107 | 25191 ft | 397 kts | 334° |
| 2026-05-08 16:32 | 19.91097 | 105.90850 | 24732 ft | 395 kts | 334° |
| 2026-05-08 16:32 | 19.93587 | 105.89582 | 24269 ft | 393 kts | 334° |
| 2026-05-08 16:32 | 19.96033 | 105.88338 | 23821 ft | 391 kts | 334° |
| 2026-05-08 16:33 | 19.98497 | 105.87082 | 23373 ft | 389 kts | 334° |
| 2026-05-08 16:33 | 20.00918 | 105.85850 | 22927 ft | 387 kts | 334° |
| 2026-05-08 16:33 | 20.03363 | 105.84604 | 22476 ft | 386 kts | 335° |
| 2026-05-08 16:33 | 20.05760 | 105.83382 | 22054 ft | 384 kts | 335° |
| 2026-05-08 16:34 | 20.08178 | 105.82151 | 21616 ft | 382 kts | 335° |
| 2026-05-08 16:34 | 20.10561 | 105.80938 | 21184 ft | 381 kts | 334° |
| 2026-05-08 16:34 | 20.12937 | 105.79728 | 20748 ft | 379 kts | 334° |
| 2026-05-08 16:34 | 20.15333 | 105.78505 | 20300 ft | 378 kts | 334° |
| 2026-05-08 16:35 | 20.17692 | 105.77299 | 19841 ft | 377 kts | 334° |
| 2026-05-08 16:35 | 20.20050 | 105.76094 | 19384 ft | 376 kts | 334° |
| 2026-05-08 16:35 | 20.22425 | 105.74881 | 18933 ft | 375 kts | 334° |
| 2026-05-08 16:35 | 20.24759 | 105.73688 | 18485 ft | 374 kts | 334° |
| 2026-05-08 16:36 | 20.27118 | 105.72482 | 18041 ft | 373 kts | 334° |
| 2026-05-08 16:36 | 20.29438 | 105.71295 | 17593 ft | 372 kts | 334° |
| 2026-05-08 16:36 | 20.31782 | 105.70095 | 17151 ft | 370 kts | 334° |
| 2026-05-08 16:36 | 20.34086 | 105.68917 | 16724 ft | 369 kts | 334° |
| 2026-05-08 16:37 | 20.36411 | 105.67728 | 16279 ft | 367 kts | 334° |
| 2026-05-08 16:37 | 20.38694 | 105.66559 | 15847 ft | 365 kts | 334° |
| 2026-05-08 16:37 | 20.40996 | 105.65382 | 15418 ft | 363 kts | 335° |
| 2026-05-08 16:37 | 20.43351 | 105.64477 | 14970 ft | 362 kts | 346° |
| 2026-05-08 16:38 | 20.45803 | 105.64114 | 14798 ft | 351 kts | 358° |
| 2026-05-08 16:38 | 20.48266 | 105.64059 | 14829 ft | 351 kts | 360° |
| 2026-05-08 16:38 | 20.50697 | 105.64054 | 14803 ft | 352 kts | 0° |
| 2026-05-08 16:38 | 20.53169 | 105.64050 | 14395 ft | 352 kts | 0° |
| 2026-05-08 16:39 | 20.55601 | 105.64043 | 13961 ft | 351 kts | 360° |
| 2026-05-08 16:39 | 20.58060 | 105.64030 | 13540 ft | 350 kts | 360° |
| 2026-05-08 16:39 | 20.60476 | 105.64013 | 13127 ft | 348 kts | 359° |
| 2026-05-08 16:39 | 20.62916 | 105.63994 | 12700 ft | 347 kts | 359° |
| 2026-05-08 16:40 | 20.65315 | 105.63972 | 12271 ft | 346 kts | 359° |
| 2026-05-08 16:40 | 20.67737 | 105.63951 | 11826 ft | 345 kts | 359° |
| 2026-05-08 16:40 | 20.70116 | 105.63929 | 11411 ft | 343 kts | 360° |
| 2026-05-08 16:40 | 20.72516 | 105.63908 | 10996 ft | 340 kts | 360° |
| 2026-05-08 16:41 | 20.74864 | 105.63887 | 10581 ft | 338 kts | 360° |
| 2026-05-08 16:41 | 20.77229 | 105.63866 | 10205 ft | 334 kts | 360° |
| 2026-05-08 16:41 | 20.79501 | 105.63847 | 10082 ft | 322 kts | 360° |
| 2026-05-08 16:42 | 20.83854 | 105.63810 | 9596 ft | 308 kts | 360° |
| 2026-05-08 16:42 | 20.85999 | 105.63791 | 9203 ft | 303 kts | 360° |
| 2026-05-08 16:42 | 20.88074 | 105.63773 | 8871 ft | 296 kts | 360° |
| 2026-05-08 16:42 | 20.90122 | 105.63753 | 8554 ft | 288 kts | 0° |
| 2026-05-08 16:43 | 20.92087 | 105.63736 | 8252 ft | 280 kts | 0° |
| 2026-05-08 16:43 | 20.94021 | 105.63718 | 7963 ft | 271 kts | 0° |
| 2026-05-08 16:43 | 20.95873 | 105.63701 | 7695 ft | 263 kts | 0° |
| 2026-05-08 16:43 | 20.97692 | 105.63686 | 7396 ft | 255 kts | 1° |
| 2026-05-08 16:44 | 20.99429 | 105.63670 | 7092 ft | 248 kts | 1° |
| 2026-05-08 16:44 | 21.01153 | 105.63638 | 6758 ft | 243 kts | 358° |
| 2026-05-08 16:44 | 21.02799 | 105.63425 | 6476 ft | 237 kts | 351° |
| 2026-05-08 16:44 | 21.04409 | 105.63000 | 6120 ft | 236 kts | 346° |
| 2026-05-08 16:45 | 21.05971 | 105.62508 | 5812 ft | 235 kts | 345° |
| 2026-05-08 16:45 | 21.07544 | 105.62002 | 5505 ft | 234 kts | 345° |
| 2026-05-08 16:45 | 21.09090 | 105.61507 | 5215 ft | 232 kts | 345° |
| 2026-05-08 16:45 | 21.10651 | 105.61010 | 4923 ft | 231 kts | 346° |
| 2026-05-08 16:46 | 21.12182 | 105.60524 | 4640 ft | 230 kts | 346° |
| 2026-05-08 16:46 | 21.13706 | 105.60042 | 4418 ft | 224 kts | 346° |
| 2026-05-08 16:46 | 21.15144 | 105.59584 | 4385 ft | 204 kts | 346° |
| 2026-05-08 16:46 | 21.16483 | 105.59158 | 4339 ft | 196 kts | 347° |
| 2026-05-08 16:47 | 21.17802 | 105.58961 | 4246 ft | 190 kts | 6° |
| 2026-05-08 16:47 | 21.19095 | 105.59255 | 4010 ft | 187 kts | 22° |
| 2026-05-08 16:47 | 21.20299 | 105.59736 | 3785 ft | 185 kts | 24° |
| 2026-05-08 16:47 | 21.21501 | 105.60240 | 3551 ft | 183 kts | 25° |
| 2026-05-08 16:48 | 21.22680 | 105.60730 | 3325 ft | 181 kts | 25° |
| 2026-05-08 16:48 | 21.23864 | 105.61214 | 3085 ft | 180 kts | 24° |
| 2026-05-08 16:48 | 21.25026 | 105.61687 | 2827 ft | 179 kts | 24° |
| 2026-05-08 16:48 | 21.26150 | 105.62267 | 2554 ft | 176 kts | 42° |
| 2026-05-08 16:49 | 21.26718 | 105.63374 | 2459 ft | 175 kts | 81° |
| 2026-05-08 16:49 | 21.26654 | 105.64696 | 2469 ft | 179 kts | 98° |
| 2026-05-08 16:49 | 21.26364 | 105.65986 | 2443 ft | 180 kts | 103° |
| 2026-05-08 16:49 | 21.26005 | 105.67282 | 2253 ft | 180 kts | 105° |
| 2026-05-08 16:50 | 21.25634 | 105.68549 | 2024 ft | 179 kts | 105° |
| 2026-05-08 16:50 | 21.25262 | 105.69813 | 1781 ft | 171 kts | 105° |
| 2026-05-08 16:50 | 21.24924 | 105.70966 | 1585 ft | 155 kts | 104° |
| 2026-05-08 16:50 | 21.24615 | 105.72033 | 1372 ft | 145 kts | 104° |
| 2026-05-08 16:51 | 21.24321 | 105.73055 | 1198 ft | 144 kts | 105° |
| 2026-05-08 16:51 | 21.24024 | 105.74082 | 1021 ft | 143 kts | 105° |
| 2026-05-08 16:51 | 21.23730 | 105.75092 | 832 ft | 143 kts | 105° |
| 2026-05-08 16:51 | 21.23426 | 105.76109 | 667 ft | 142 kts | 106° |
| 2026-05-08 16:52 | 21.23135 | 105.77115 | 467 ft | 142 kts | 105° |
| 2026-05-08 16:52 | 21.22838 | 105.78130 | 286 ft | 141 kts | 105° |
| 2026-05-08 16:52 | 21.22557 | 105.79129 | 105 ft | 141 kts | 106° |
| 2026-05-08 16:52 | 21.22285 | 105.80092 | 48 ft | 117 kts | 109° |
| 2026-05-08 16:53 | 21.22004 | 105.81062 | 48 ft | 21 kts | 107° |
| 2026-05-08 16:53 | 21.21954 | 105.81112 | 48 ft | 10 kts | 221° |
| 2026-05-08 16:53 | 21.21947 | 105.81039 | 48 ft | 9 kts | 265° |
| 2026-05-08 16:54 | 21.21934 | 105.80969 | 48 ft | 10 kts | 257° |
| 2026-05-08 16:54 | 21.21917 | 105.80890 | 48 ft | 11 kts | 257° |
| 2026-05-08 16:54 | 21.21900 | 105.80808 | 48 ft | 9 kts | 257° |
| 2026-05-08 16:54 | 21.21873 | 105.80743 | 48 ft | 10 kts | 226° |
| 2026-05-08 16:55 | 21.21807 | 105.80714 | 48 ft | 10 kts | 196° |
| 2026-05-08 16:55 | 21.21732 | 105.80690 | 48 ft | 11 kts | 197° |
| 2026-05-08 16:55 | 21.21659 | 105.80667 | 48 ft | 10 kts | 192° |
| 2026-05-08 16:55 | 21.21603 | 105.80704 | 48 ft | 11 kts | 103° |
| 2026-05-08 16:56 | 21.21586 | 105.80771 | 48 ft | 8 kts | 107° |
| 2026-05-08 16:56 | 21.21540 | 105.80796 | 48 ft | 7 kts | 201° |
| 2026-05-08 16:56 | 21.21493 | 105.80779 | 48 ft | 7 kts | 197° |
| 2026-05-08 16:56 | 21.21449 | 105.80756 | 48 ft | 6 kts | 230° |
| 2026-05-08 16:57 | 21.21455 | 105.80718 | 48 ft | 4 kts | 313° |
| 2026-05-08 16:57 | 21.21467 | 105.80693 | 48 ft | 1 kts | 289° |
| 2026-05-08 16:57 | 21.21468 | 105.80688 | 48 ft | 1 kts | 289° |
| 2026-05-08 16:57 | 21.21472 | 105.80679 | 48 ft | 0 kts | 288° |
| 2026-05-08 16:58 | 21.21473 | 105.80674 | 48 ft | 0 kts | 288° |
| 2026-05-08 16:58 | 21.21473 | 105.80673 | 48 ft | 0 kts | 288° |